Time;durP1;ratioP1;P1;durP2;ratioP2;P2;SDS_P1;SDS_P2;PMS_P1;PMS_P2;Temp;Humidity;BMP_temperature;BMP_pressure;BME280_temperature;BME280_humidity;BME280_pressure;Samples;Min_cycle;Max_cycle;Signal;HPM_P1;HPM_P2
2020/12/25 00:01:24;;;;;;;32.87;29.30;;;;;;;9.64;100.00;94350.25;4975729;28;20429;-77
2020/12/25 00:03:51;;;;;;;32.20;28.80;;;;;;;9.65;100.00;94347.53;4975766;28;20446;-75
2020/12/25 00:06:17;;;;;;;41.87;29.67;;;;;;;9.81;100.00;94345.84;4976128;28;20436;-77
2020/12/25 00:08:44;;;;;;;35.57;28.93;;;;;;;9.89;100.00;94352.72;4975887;28;20440;-76
2020/12/25 00:11:10;;;;;;;31.93;28.90;;;;;;;9.44;100.00;94289.78;4975867;28;20476;-75
2020/12/25 00:13:37;;;;;;;31.87;28.27;;;;;;;9.93;100.00;94349.63;4975895;28;20460;-75
2020/12/25 00:16:04;;;;;;;35.53;29.27;;;;;;;9.72;100.00;94350.25;4975089;28;20449;-76
2020/12/25 00:18:36;;;;;;;32.83;29.27;;;;;;;9.63;100.00;94370.03;4975459;28;20473;-78
2020/12/25 00:21:03;;;;;;;33.97;30.50;;;;;;;9.76;100.00;94353.25;4976471;28;20445;-77
2020/12/25 00:23:30;;;;;;;32.73;29.83;;;;;;;9.68;100.00;94361.81;4962692;28;20520;-75
2020/12/25 00:25:56;;;;;;;33.67;30.13;;;;;;;9.61;100.00;94356.56;4956938;29;20457;-76
2020/12/25 00:28:23;;;;;;;38.03;33.73;;;;;;;9.62;100.00;94371.81;4956312;29;20496;-76
2020/12/25 00:30:50;;;;;;;35.03;31.10;;;;;;;9.69;100.00;94368.56;4955874;29;20837;-78
2020/12/25 00:33:16;;;;;;;40.07;31.73;;;;;;;9.29;100.00;94369.34;4956062;28;20470;-76
2020/12/25 00:35:43;;;;;;;35.93;30.80;;;;;;;9.45;100.00;94360.78;4967173;28;20464;-79
2020/12/25 00:38:09;;;;;;;34.57;30.43;;;;;;;9.45;100.00;94367.69;4975021;28;20521;-76
2020/12/25 00:40:42;;;;;;;35.17;30.07;;;;;;;9.48;100.00;94357.88;4975317;28;20466;-77
2020/12/25 00:43:08;;;;;;;36.87;32.73;;;;;;;9.50;100.00;94352.56;4975598;28;20436;-76
2020/12/25 00:45:35;;;;;;;42.73;34.93;;;;;;;9.59;100.00;94355.91;4974668;28;20479;-76
2020/12/25 00:48:03;;;;;;;38.90;32.70;;;;;;;9.66;100.00;94359.41;4974926;28;20471;-76
2020/12/25 00:50:29;;;;;;;37.10;31.70;;;;;;;9.62;100.00;94345.28;4974790;28;20454;-76
2020/12/25 00:52:55;;;;;;;35.77;31.83;;;;;;;9.65;100.00;94362.97;4963378;28;20474;-76
2020/12/25 00:55:22;;;;;;;34.10;30.50;;;;;;;9.69;100.00;94360.84;4955333;29;20508;-76
2020/12/25 00:57:48;;;;;;;31.53;28.60;;;;;;;9.70;100.00;94370.97;4954869;28;20450;-76
2020/12/25 01:00:14;;;;;;;85.57;53.53;;;;;;;9.58;100.00;94370.53;4955583;29;20450;-84
2020/12/25 01:02:41;;;;;;;47.03;36.20;;;;;;;9.72;100.00;94375.94;4971974;28;20449;-76
2020/12/25 01:05:08;;;;;;;40.30;32.37;;;;;;;9.74;100.00;94372.22;4974494;28;20433;-77
2020/12/25 01:07:35;;;;;;;41.67;29.93;;;;;;;9.62;100.00;94364.09;4974531;28;20840;-76
2020/12/25 01:10:01;;;;;;;38.53;31.83;;;;;;;9.71;100.00;94357.16;4974629;28;20461;-75
2020/12/25 01:12:27;;;;;;;33.07;29.23;;;;;;;9.58;100.00;94377.44;4965839;28;20497;-75
2020/12/25 01:14:54;;;;;;;41.47;32.20;;;;;;;9.43;100.00;94364.50;4955301;29;20438;-76
2020/12/25 01:17:20;;;;;;;40.73;32.43;;;;;;;9.37;100.00;94360.81;4955504;29;20451;-76
2020/12/25 01:19:47;;;;;;;37.97;33.90;;;;;;;9.41;100.00;94354.34;4955474;29;20449;-75
2020/12/25 01:22:14;;;;;;;35.83;31.50;;;;;;;9.50;100.00;94357.69;4954923;29;20438;-75
2020/12/25 01:24:41;;;;;;;31.60;28.67;;;;;;;9.41;100.00;94325.31;4956376;28;20478;-76
2020/12/25 01:27:07;;;;;;;30.60;27.60;;;;;;;9.37;100.00;94340.25;4963426;28;20445;-76
2020/12/25 01:29:33;;;;;;;32.20;28.80;;;;;;;9.50;100.00;94345.66;4974351;28;20451;-76
2020/12/25 01:32:00;;;;;;;32.90;29.37;;;;;;;9.53;100.00;94341.16;4973385;28;20465;-76
2020/12/25 01:34:26;;;;;;;31.87;28.30;;;;;;;9.47;100.00;94335.72;4974678;28;20994;-76
2020/12/25 01:36:53;;;;;;;44.67;34.40;;;;;;;9.19;100.00;94335.31;4973934;28;20446;-75
2020/12/25 01:39:20;;;;;;;38.30;34.30;;;;;;;9.31;100.00;94335.78;4973968;28;20918;-76
2020/12/25 01:41:46;;;;;;;195.87;112.37;;;;;;;9.37;100.00;94335.09;4974204;28;20796;-74
2020/12/25 01:44:13;;;;;;;101.57;60.60;;;;;;;9.29;100.00;94325.66;4974025;28;20450;-75
2020/12/25 01:46:40;;;;;;;38.47;34.30;;;;;;;9.37;100.00;94332.53;4973821;28;20433;-74
2020/12/25 01:49:07;;;;;;;34.17;30.57;;;;;;;9.23;100.00;94316.06;4973763;28;20430;-74
2020/12/25 01:51:33;;;;;;;38.10;31.57;;;;;;;9.43;100.00;94331.09;4971276;28;20995;-73
2020/12/25 01:54:00;;;;;;;33.63;30.03;;;;;;;9.26;100.00;94334.50;4954395;29;20486;-74
2020/12/25 01:56:27;;;;;;;35.47;31.97;;;;;;;9.29;100.00;94330.81;4954346;28;20937;-76
2020/12/25 01:58:54;;;;;;;32.47;29.03;;;;;;;9.34;100.00;94328.53;4954825;29;20538;-74
2020/12/25 02:01:20;;;;;;;32.13;27.90;;;;;;;9.38;100.00;94331.59;4954222;29;20438;-74
2020/12/25 02:03:47;;;;;;;33.40;30.00;;;;;;;9.04;100.00;94326.56;4954786;29;20451;-74
2020/12/25 02:06:14;;;;;;;33.80;29.87;;;;;;;8.85;100.00;94332.06;4954112;29;20438;-73
2020/12/25 02:08:41;;;;;;;33.17;29.73;;;;;;;8.84;100.00;94320.97;4954577;28;20442;-73
2020/12/25 02:11:08;;;;;;;33.00;29.60;;;;;;;9.01;100.00;94308.88;4953909;29;20455;-74
2020/12/25 02:13:36;;;;;;;31.60;28.83;;;;;;;9.11;100.00;94313.03;4971917;28;20448;-74
2020/12/25 02:16:03;;;;;;;32.57;29.07;;;;;;;8.96;100.00;94313.69;4973955;28;20433;-74
2020/12/25 02:18:33;;;;;;;33.33;29.57;;;;;;;8.89;100.00;94317.91;4973326;28;20449;-74
2020/12/25 02:21:03;;;;;;;33.57;30.23;;;;;;;8.94;100.00;94305.38;4973361;28;20500;-77
2020/12/25 02:23:29;;;;;;;35.00;30.40;;;;;;;8.86;100.00;94308.78;4974068;28;20477;-74
2020/12/25 02:25:56;;;;;;;35.13;30.90;;;;;;;8.90;100.00;94311.78;4973198;28;20820;-75
2020/12/25 02:28:22;;;;;;;32.93;29.70;;;;;;;8.98;100.00;94306.66;4973604;28;20434;-73
2020/12/25 02:30:49;;;;;;;34.00;30.27;;;;;;;9.02;100.00;94315.63;4973578;28;20433;-73
2020/12/25 02:33:16;;;;;;;31.43;28.53;;;;;;;9.03;100.00;94306.94;4957873;28;20532;-73
2020/12/25 02:35:42;;;;;;;31.33;28.13;;;;;;;9.05;100.00;94314.47;4954476;29;20444;-74
2020/12/25 02:38:09;;;;;;;33.00;29.67;;;;;;;8.95;100.00;94306.97;4953845;29;20431;-74
2020/12/25 02:40:36;;;;;;;40.27;30.70;;;;;;;9.14;100.00;94310.16;4953811;29;20442;-73
2020/12/25 02:43:02;;;;;;;32.37;29.00;;;;;;;9.15;100.00;94312.53;4954117;29;20449;-74
2020/12/25 02:45:28;;;;;;;32.23;28.80;;;;;;;9.19;100.00;94302.72;4953684;29;20454;-74
2020/12/25 02:47:55;;;;;;;30.40;27.77;;;;;;;9.10;100.00;94280.59;4954451;29;20810;-74
2020/12/25 02:50:21;;;;;;;32.87;29.13;;;;;;;9.23;100.00;94292.94;4953684;29;20530;-74
2020/12/25 02:52:48;;;;;;;32.50;29.27;;;;;;;9.06;100.00;94275.00;4965497;28;20490;-74
2020/12/25 02:55:15;;;;;;;31.50;28.03;;;;;;;9.23;100.00;94292.94;4973154;28;20445;-75
2020/12/25 02:57:41;;;;;;;31.00;28.17;;;;;;;9.18;100.00;94279.78;4973458;28;20456;-74
2020/12/25 03:00:08;;;;;;;32.17;28.77;;;;;;;9.26;100.00;94288.25;4972891;28;20940;-74
2020/12/25 03:02:34;;;;;;;31.50;28.17;;;;;;;9.27;100.00;94294.19;4972764;28;20450;-75
2020/12/25 03:05:00;;;;;;;32.60;29.23;;;;;;;9.26;100.00;94274.59;4955866;28;20445;-74
2020/12/25 03:07:27;;;;;;;33.93;30.33;;;;;;;9.18;100.00;94274.63;4972994;28;20433;-74
2020/12/25 03:09:53;;;;;;;30.87;27.67;;;;;;;9.21;100.00;94277.66;4960590;28;20446;-74
2020/12/25 03:12:20;;;;;;;31.70;27.87;;;;;;;9.16;100.00;94280.72;4953776;29;20479;-74
2020/12/25 03:14:47;;;;;;;28.93;26.23;;;;;;;9.03;100.00;94277.88;4953685;29;20434;-74
2020/12/25 03:17:13;;;;;;;30.00;27.40;;;;;;;9.03;100.00;94271.00;4953849;29;20791;-73
2020/12/25 03:19:40;;;;;;;29.70;27.10;;;;;;;8.99;100.00;94267.16;4953918;28;20431;-75
2020/12/25 03:22:06;;;;;;;29.53;27.10;;;;;;;9.10;100.00;94273.69;4957177;29;20434;-76
2020/12/25 03:24:33;;;;;;;30.40;27.20;;;;;;;9.10;100.00;94257.47;4957697;28;21023;-74
2020/12/25 03:26:59;;;;;;;30.83;27.90;;;;;;;8.81;100.00;94264.78;4957729;29;20520;-74
2020/12/25 03:29:27;;;;;;;30.97;27.97;;;;;;;8.61;100.00;94262.59;4957596;28;20453;-75
2020/12/25 03:31:53;;;;;;;31.50;28.27;;;;;;;8.74;100.00;94258.72;4957157;29;20478;-75
2020/12/25 03:34:20;;;;;;;31.17;27.73;;;;;;;8.67;100.00;94258.59;4957239;29;20791;-74
2020/12/25 03:36:47;;;;;;;30.80;28.00;;;;;;;8.54;100.00;94249.59;4957043;29;20809;-74
2020/12/25 03:39:13;;;;;;;35.43;31.67;;;;;;;8.27;100.00;94251.53;4956865;29;20508;-74
2020/12/25 03:41:40;;;;;;;39.30;33.47;;;;;;;8.18;100.00;94250.75;4956729;29;20989;-74
2020/12/25 03:44:06;;;;;;;36.87;32.07;;;;;;;8.27;100.00;94243.03;4956650;29;20449;-74
2020/12/25 03:46:34;;;;;;;32.90;29.40;;;;;;;8.42;100.00;94248.34;4956811;29;20853;-74
2020/12/25 03:49:01;;;;;;;33.33;29.97;;;;;;;8.37;100.00;94243.69;4961088;28;20948;-74
2020/12/25 03:51:28;;;;;;;33.53;30.30;;;;;;;8.50;100.00;94242.38;4975807;28;20921;-74
2020/12/25 03:53:54;;;;;;;35.10;31.23;;;;;;;8.45;100.00;94253.94;4976121;28;20437;-74
2020/12/25 03:56:20;;;;;;;35.90;32.27;;;;;;;8.31;100.00;94247.69;4976138;28;20510;-74
2020/12/25 03:58:47;;;;;;;44.70;33.93;;;;;;;8.40;100.00;94256.19;4976127;28;20882;-74
2020/12/25 04:01:14;;;;;;;43.00;32.97;;;;;;;8.53;100.00;94249.75;4975714;28;20441;-74
2020/12/25 04:03:41;;;;;;;34.63;31.03;;;;;;;8.51;100.00;94252.50;4957621;28;20442;-74
2020/12/25 04:06:08;;;;;;;37.57;31.37;;;;;;;8.57;100.00;94245.91;4956640;29;20452;-74
2020/12/25 04:08:35;;;;;;;33.47;29.93;;;;;;;8.55;100.00;94235.00;4956616;29;20430;-74
2020/12/25 04:11:01;;;;;;;37.07;32.87;;;;;;;8.58;100.00;94235.50;4956531;29;20439;-74
2020/12/25 04:13:28;;;;;;;36.10;31.27;;;;;;;8.64;100.00;94243.50;4956077;29;20520;-74
2020/12/25 04:15:54;;;;;;;35.50;30.57;;;;;;;8.55;100.00;94251.19;4956437;29;21016;-74
2020/12/25 04:18:20;;;;;;;32.70;29.20;;;;;;;8.65;100.00;94253.59;4956179;29;20445;-74
2020/12/25 04:20:48;;;;;;;34.20;29.57;;;;;;;8.50;100.00;94245.75;4955984;29;20438;-74
2020/12/25 04:23:14;;;;;;;36.20;32.27;;;;;;;8.29;100.00;94246.28;4971280;28;20516;-74
2020/12/25 04:25:41;;;;;;;37.90;31.77;;;;;;;8.42;100.00;94241.41;4975366;28;20983;-74
2020/12/25 04:28:07;;;;;;;35.70;30.90;;;;;;;8.47;100.00;94251.19;4973026;28;20505;-74
2020/12/25 04:30:34;;;;;;;33.50;30.27;;;;;;;8.33;100.00;94253.47;4955774;28;20442;-74
2020/12/25 04:33:00;;;;;;;31.07;27.77;;;;;;;8.22;100.00;94246.13;4955826;29;20470;-74
2020/12/25 04:35:27;;;;;;;32.07;28.80;;;;;;;8.28;100.00;94253.16;4955827;29;20960;-74
2020/12/25 04:37:54;;;;;;;31.57;28.57;;;;;;;8.22;100.00;94257.16;4955907;29;20549;-74
2020/12/25 04:40:20;;;;;;;32.10;28.77;;;;;;;8.34;100.00;94249.94;4956859;29;20438;-74
2020/12/25 04:42:50;;;;;;;30.97;27.77;;;;;;;8.34;100.00;94249.13;4955546;29;20843;-74
2020/12/25 04:45:17;;;;;;;29.83;27.00;;;;;;;8.07;100.00;94254.44;4956226;29;20454;-74
2020/12/25 04:47:46;;;;;;;32.13;27.70;;;;;;;8.30;100.00;94253.78;4955621;29;20450;-74
2020/12/25 04:50:13;;;;;;;30.53;27.43;;;;;;;8.34;100.00;94257.63;4955385;29;20450;-74
2020/12/25 04:52:39;;;;;;;31.60;28.60;;;;;;;8.35;100.00;94269.53;4955973;29;20584;-74
2020/12/25 04:55:07;;;;;;;31.33;28.10;;;;;;;8.17;100.00;94233.78;4955942;29;20493;-74
2020/12/25 04:57:33;;;;;;;32.07;28.33;;;;;;;7.52;100.00;94260.00;4955703;29;20454;-74
2020/12/25 05:00:16;;;;;;;29.67;26.87;;;;;;;7.63;100.00;94232.47;4955599;29;20457;-74
2020/12/25 05:02:42;;;;;;;29.67;27.00;;;;;;;7.91;100.00;94242.41;4956175;29;20426;-74
2020/12/25 05:05:10;;;;;;;32.50;29.17;;;;;;;7.77;100.00;94246.44;4955461;29;20434;-74
2020/12/25 05:07:37;;;;;;;34.93;30.43;;;;;;;7.88;100.00;94238.44;4955378;29;20454;-74
2020/12/25 05:10:07;;;;;;;31.77;28.40;;;;;;;7.96;100.00;94257.31;4956129;29;20442;-74
2020/12/25 05:12:35;;;;;;;33.03;29.60;;;;;;;8.07;100.00;94244.19;4957169;28;20462;-74
2020/12/25 05:15:06;;;;;;;37.50;29.47;;;;;;;8.03;100.00;94258.28;4969194;28;20839;-74
2020/12/25 05:17:33;;;;;;;36.43;30.93;;;;;;;8.12;100.00;94256.53;4974616;28;20441;-74
2020/12/25 05:19:59;;;;;;;32.27;29.07;;;;;;;8.24;100.00;94259.59;4974260;28;20823;-74
2020/12/25 05:22:33;;;;;;;52.87;30.90;;;;;;;8.29;100.00;94266.78;4969875;28;20817;-74
2020/12/25 05:25:01;;;;;;;31.47;28.13;;;;;;;8.31;100.00;94252.03;4975582;28;20485;-74
2020/12/25 05:27:29;;;;;;;36.03;29.43;;;;;;;8.34;100.00;94265.34;4974545;28;20456;-74
2020/12/25 05:30:00;;;;;;;31.47;28.03;;;;;;;8.37;100.00;94271.91;4974095;28;20437;-74
2020/12/25 05:32:29;;;;;;;31.17;27.57;;;;;;;8.28;100.00;94253.16;4973961;28;20469;-74
2020/12/25 05:34:57;;;;;;;31.17;28.03;;;;;;;8.35;100.00;94249.00;4955956;28;20465;-74
2020/12/25 05:37:23;;;;;;;30.43;26.80;;;;;;;8.22;100.00;94221.25;4961464;28;20823;-74
2020/12/25 05:39:50;;;;;;;29.00;26.33;;;;;;;8.35;100.00;94250.75;4973911;28;20472;-74
2020/12/25 05:42:16;;;;;;;40.67;32.50;;;;;;;8.27;100.00;94248.97;4973969;28;20463;-76
2020/12/25 05:44:49;;;;;;;32.07;28.77;;;;;;;8.19;100.00;94249.00;4973652;28;20917;-75
2020/12/25 05:47:17;;;;;;;30.17;26.30;;;;;;;8.30;100.00;94266.63;4974134;28;20438;-74
2020/12/25 05:49:46;;;;;;;30.30;27.60;;;;;;;8.19;100.00;94265.19;4973729;28;20513;-74
2020/12/25 05:52:16;;;;;;;29.53;26.63;;;;;;;8.25;100.00;94268.88;4973877;28;20473;-74
2020/12/25 05:54:47;;;;;;;30.47;27.27;;;;;;;7.66;100.00;94256.00;4973895;28;20437;-74
2020/12/25 05:57:14;;;;;;;31.80;28.40;;;;;;;8.00;100.00;94263.72;4966164;28;20466;-69
2020/12/25 05:59:47;;;;;;;59.90;40.67;;;;;;;8.10;100.00;94259.25;4954162;29;20446;-73
2020/12/25 06:02:16;;;;;;;40.90;32.43;;;;;;;8.15;100.00;94263.09;4954159;29;20426;-73
2020/12/25 06:04:42;;;;;;;36.67;28.70;;;;;;;8.23;100.00;94276.72;4954677;29;20450;-72
2020/12/25 06:07:11;;;;;;;36.17;28.17;;;;;;;8.23;100.00;94265.66;4954471;29;20454;-73
2020/12/25 06:09:44;;;;;;;31.23;28.03;;;;;;;8.24;100.00;94282.66;4964862;28;20444;-73
2020/12/25 06:12:15;;;;;;;32.90;29.40;;;;;;;8.17;100.00;94290.19;4973739;28;20468;-73
2020/12/25 06:14:42;;;;;;;37.90;34.63;;;;;;;8.25;100.00;94287.63;4973161;28;20440;-73
2020/12/25 06:17:20;;;;;;;40.17;36.53;;;;;;;8.17;100.00;94291.97;4964648;28;20456;-76
2020/12/25 06:19:54;;;;;;;79.17;61.37;;;;;;;8.24;100.00;94301.41;4954045;29;20442;-76
2020/12/25 06:22:23;;;;;;;56.90;48.03;;;;;;;8.18;100.00;94293.56;4957144;28;20515;-73
2020/12/25 06:24:51;;;;;;;39.37;36.07;;;;;;;8.15;100.00;94299.00;4954175;28;20477;-73
2020/12/25 06:27:18;;;;;;;37.60;34.43;;;;;;;8.23;100.00;94293.88;4963409;28;20515;-73
2020/12/25 06:29:45;;;;;;;34.83;31.20;;;;;;;8.37;100.00;94310.41;4973219;28;20448;-72
2020/12/25 06:32:12;;;;;;;34.07;31.17;;;;;;;8.43;100.00;94321.78;4973323;28;20489;-73
2020/12/25 06:34:46;;;;;;;34.23;31.10;;;;;;;8.41;100.00;94311.69;4973359;28;20436;-74
2020/12/25 06:37:14;;;;;;;207.20;106.17;;;;;;;8.42;100.00;94304.78;4973419;28;20529;-73
2020/12/25 06:39:50;;;;;;;51.00;42.80;;;;;;;8.42;100.00;94308.13;4961137;28;20461;-72
2020/12/25 06:42:24;;;;;;;32.83;29.73;;;;;;;8.44;100.00;94297.72;4949642;29;20505;-72
2020/12/25 06:44:51;;;;;;;33.27;30.20;;;;;;;8.26;100.00;94301.25;4954404;29;20442;-73
2020/12/25 06:47:37;;;;;;;34.63;31.23;;;;;;;8.32;100.00;94312.63;4953955;29;20556;-71
2020/12/25 06:50:09;;;;;;;33.17;29.97;;;;;;;8.41;100.00;94321.13;4955539;28;20426;-72
2020/12/25 06:52:51;;;;;;;34.73;31.43;;;;;;;8.42;100.00;94309.91;4972721;28;20496;-73
2020/12/25 06:55:20;;;;;;;29.77;27.13;;;;;;;8.52;100.00;94309.75;4974588;28;20488;-72
2020/12/25 06:57:46;;;;;;;31.20;28.27;;;;;;;8.56;100.00;94318.72;4976980;28;20453;-72
2020/12/25 07:00:13;;;;;;;32.73;29.20;;;;;;;8.54;100.00;94300.91;4976790;28;20446;-72
2020/12/25 07:02:41;;;;;;;31.07;28.37;;;;;;;8.06;100.00;94308.47;4970675;28;20460;-73
2020/12/25 07:05:08;;;;;;;57.37;45.67;;;;;;;8.28;100.00;94313.94;4957598;29;20529;-70
2020/12/25 07:07:34;;;;;;;75.97;53.33;;;;;;;7.99;100.00;94285.22;4957007;29;21011;-72
2020/12/25 07:10:08;;;;;;;40.50;36.40;;;;;;;8.31;100.00;94283.59;4957585;29;20839;-73
2020/12/25 07:12:35;;;;;;;33.43;30.37;;;;;;;8.51;100.00;94287.63;4971976;28;20468;-73
2020/12/25 07:15:02;;;;;;;33.97;30.47;;;;;;;8.61;100.00;94284.91;4959382;28;20452;-73
2020/12/25 07:17:30;;;;;;;31.70;28.60;;;;;;;8.66;100.00;94290.34;4962463;28;20446;-73
2020/12/25 07:19:58;;;;;;;41.10;37.90;;;;;;;8.65;100.00;94283.59;4957415;29;20435;-73
2020/12/25 07:22:24;;;;;;;42.73;39.07;;;;;;;8.65;100.00;94274.13;4960249;28;20441;-73
2020/12/25 07:24:51;;;;;;;31.80;28.60;;;;;;;8.81;100.00;94285.34;4963064;28;20485;-74
2020/12/25 07:27:18;;;;;;;29.70;26.60;;;;;;;8.88;100.00;94290.63;4956904;29;20439;-74
2020/12/25 07:29:45;;;;;;;28.30;25.03;;;;;;;8.94;100.00;94302.78;4956884;29;20446;-73
2020/12/25 07:32:12;;;;;;;34.20;27.60;;;;;;;8.77;100.00;94305.41;4956981;29;20858;-73
2020/12/25 07:34:40;;;;;;;30.10;27.17;;;;;;;8.85;100.00;94316.66;4962894;28;20441;-72
2020/12/25 07:37:09;;;;;;;28.47;25.67;;;;;;;8.77;100.00;94318.25;4957187;29;20434;-72
2020/12/25 07:39:35;;;;;;;28.70;26.00;;;;;;;8.70;100.00;94315.53;4957101;29;20434;-72
2020/12/25 07:42:02;;;;;;;46.77;43.27;;;;;;;8.65;100.00;94312.66;4957519;29;20450;-71
2020/12/25 07:44:28;;;;;;;46.20;43.10;;;;;;;8.91;100.00;94315.97;4957090;29;20438;-71
2020/12/25 07:46:54;;;;;;;47.00;43.57;;;;;;;9.04;100.00;94315.47;4964599;28;20449;-71
2020/12/25 07:49:21;;;;;;;45.47;42.20;;;;;;;8.96;100.00;94318.84;4964870;28;20469;-70
2020/12/25 07:51:48;;;;;;;56.60;51.07;;;;;;;8.78;100.00;94327.53;4956081;29;20464;-71
2020/12/25 07:54:16;;;;;;;78.47;61.27;;;;;;;8.54;100.00;94324.03;4956402;29;20438;-71
2020/12/25 07:56:43;;;;;;;73.80;60.37;;;;;;;8.44;100.00;94316.50;4956364;29;20446;-71
2020/12/25 07:59:09;;;;;;;84.63;72.00;;;;;;;7.51;100.00;94304.50;4965110;28;20442;-71
2020/12/25 08:01:36;;;;;;;145.67;80.90;;;;;;;7.75;100.00;94291.94;4972643;28;20446;-70
2020/12/25 08:04:04;;;;;;;136.07;83.47;;;;;;;8.09;100.00;94288.44;4956387;29;20870;-72
2020/12/25 08:06:33;;;;;;;178.00;105.67;;;;;;;8.32;100.00;94284.41;4973328;28;20466;-71
2020/12/25 08:09:02;;;;;;;162.33;97.13;;;;;;;8.47;100.00;94280.22;4975359;28;20795;-70
2020/12/25 08:11:31;;;;;;;88.93;67.07;;;;;;;8.62;100.00;94286.50;4961601;28;20450;-71
2020/12/25 08:14:03;;;;;;;84.77;54.57;;;;;;;8.79;100.00;94289.84;4955920;29;20470;-72
2020/12/25 08:16:30;;;;;;;74.57;51.87;;;;;;;8.84;100.00;94297.06;4956232;29;20493;-71
2020/12/25 08:18:57;;;;;;;76.07;53.33;;;;;;;9.01;100.00;94290.09;4957246;28;20450;-76
2020/12/25 08:21:30;;;;;;;100.60;65.70;;;;;;;9.03;100.00;94295.88;4961681;28;20835;-70
2020/12/25 08:23:57;;;;;;;110.33;72.67;;;;;;;9.07;100.00;94293.78;4972046;28;20478;-70
2020/12/25 08:26:31;;;;;;;74.93;52.77;;;;;;;9.19;100.00;94302.72;4955903;29;20450;-71
2020/12/25 08:28:58;;;;;;;62.87;43.83;;;;;;;9.04;100.00;94306.00;4955927;28;20812;-72
2020/12/25 08:31:24;;;;;;;74.07;46.10;;;;;;;9.10;100.00;94304.53;4974676;28;20445;-71
2020/12/25 08:33:55;;;;;;;69.13;44.43;;;;;;;9.28;100.00;94301.72;4974432;28;20476;-73
2020/12/25 08:36:21;;;;;;;54.53;42.53;;;;;;;9.23;100.00;94314.28;4974885;28;20445;-70
2020/12/25 08:38:48;;;;;;;46.27;36.97;;;;;;;9.28;100.00;94303.50;4974312;28;20941;-72
2020/12/25 08:41:15;;;;;;;43.03;36.43;;;;;;;9.24;100.00;94325.34;4973184;28;20536;-71
2020/12/25 08:43:43;;;;;;;42.33;35.27;;;;;;;9.25;100.00;94314.91;4966697;28;20457;-71
2020/12/25 08:46:10;;;;;;;50.63;37.10;;;;;;;9.36;100.00;94311.16;4974312;28;20445;-72
2020/12/25 08:48:49;;;;;;;44.47;35.97;;;;;;;9.49;100.00;94307.28;4974102;28;20499;-71
2020/12/25 08:51:17;;;;;;;38.77;34.70;;;;;;;9.38;100.00;94288.69;4961322;28;20827;-71
2020/12/25 08:53:50;;;;;;;44.33;34.67;;;;;;;9.27;100.00;94284.69;4974145;28;20489;-71
2020/12/25 08:56:18;;;;;;;59.53;42.40;;;;;;;9.52;100.00;94311.28;4973679;28;20928;-67
2020/12/25 08:58:56;;;;;;;112.90;71.40;;;;;;;9.62;100.00;94297.25;4955588;29;20461;-71
2020/12/25 09:01:23;;;;;;;47.87;37.40;;;;;;;9.83;100.00;94300.97;4964528;28;20456;-73
2020/12/25 09:03:49;;;;;;;43.73;38.57;;;;;;;9.91;100.00;94300.13;4973929;28;20498;-72
2020/12/25 09:06:16;;;;;;;56.30;45.13;;;;;;;9.69;100.00;94296.56;4973971;28;20837;-71
2020/12/25 09:08:43;;;;;;;117.73;76.83;;;;;;;9.90;100.00;94288.22;4955055;29;20445;-78
2020/12/25 09:11:09;;;;;;;52.80;39.50;;;;;;;9.84;100.00;94294.06;4969034;28;20450;-71
2020/12/25 09:13:36;;;;;;;39.20;34.97;;;;;;;9.88;100.00;94279.88;4962736;28;20476;-71
2020/12/25 09:16:05;;;;;;;40.27;32.43;;;;;;;9.61;100.00;94279.44;4964207;28;20500;-73
2020/12/25 09:18:32;;;;;;;41.67;35.00;;;;;;;9.79;100.00;94294.56;4973189;28;20441;-72
2020/12/25 09:20:58;;;;;;;45.00;36.17;;;;;;;9.82;100.00;94283.94;4963237;28;20829;-73
2020/12/25 09:23:24;;;;;;;51.07;40.10;;;;;;;9.93;100.00;94284.53;4954840;28;20441;-74
2020/12/25 09:25:51;;;;;;;51.30;38.97;;;;;;;9.96;100.00;94272.13;4971099;28;20453;-75
2020/12/25 09:28:17;;;;;;;44.30;37.60;;;;;;;9.95;100.00;94278.22;4973567;28;20857;-77
2020/12/25 09:30:44;;;;;;;47.90;39.87;;;;;;;9.88;100.00;94264.44;4973989;28;20452;-73
2020/12/25 09:33:11;;;;;;;43.20;35.53;;;;;;;9.94;100.00;94256.06;4973710;28;20469;-77
2020/12/25 09:35:38;;;;;;;41.03;32.43;;;;;;;9.72;100.00;94270.53;4973898;28;20445;-74
2020/12/25 09:38:04;;;;;;;37.33;32.40;;;;;;;9.82;100.00;94265.94;4973428;28;20445;-75
2020/12/25 09:40:32;;;;;;;43.87;32.33;;;;;;;9.98;100.00;94259.09;4973720;28;20795;-77
2020/12/25 09:42:58;;;;;;;37.70;32.87;;;;;;;9.85;100.00;94260.47;4973170;28;20447;-74
2020/12/25 09:45:27;;;;;;;102.93;67.93;;;;;;;10.06;100.00;94253.88;4973913;28;20603;-82
2020/12/25 09:47:54;;;;;;;384.20;197.33;;;;;;;9.99;100.00;94206.66;4973646;28;20445;-85
2020/12/25 09:50:21;;;;;;;111.50;65.10;;;;;;;10.45;100.00;94247.94;4973268;28;20532;-80
2020/12/25 09:52:48;;;;;;;44.77;37.80;;;;;;;10.44;100.00;94244.53;4973688;28;20480;-76
2020/12/25 09:55:14;;;;;;;43.83;33.97;;;;;;;10.47;100.00;94240.81;4973752;28;20531;-74
2020/12/25 09:57:41;;;;;;;36.40;30.40;;;;;;;10.53;100.00;94222.13;4973159;28;20550;-76
2020/12/25 10:00:11;;;;;;;37.90;33.33;;;;;;;10.27;100.00;94236.19;4972960;28;20438;-79
2020/12/25 10:02:38;;;;;;;34.67;30.87;;;;;;;10.29;100.00;94229.09;4972761;28;20474;-78
2020/12/25 10:05:06;;;;;;;30.80;27.60;;;;;;;10.17;100.00;94216.63;4972867;28;20820;-79
2020/12/25 10:07:34;;;;;;;30.83;27.60;;;;;;;10.40;100.00;94226.09;4973411;28;20433;-77
2020/12/25 10:10:00;;;;;;;30.87;26.07;;;;;;;10.40;100.00;94208.06;4973267;28;20430;-81
2020/12/25 10:12:28;;;;;;;31.30;27.73;;;;;;;10.26;100.00;94211.44;4973465;28;20469;-88
2020/12/25 10:14:54;;;;;;;34.83;31.20;;;;;;;10.36;100.00;94206.81;4957967;28;20973;-77
2020/12/25 10:17:20;;;;;;;30.63;27.80;;;;;;;9.77;100.00;94218.59;4953987;29;20466;-76
2020/12/25 10:19:48;;;;;;;57.07;42.07;;;;;;;9.91;100.00;94193.88;4954877;29;20596;-85
2020/12/25 10:22:15;;;;;;;42.17;35.10;;;;;;;10.14;100.00;94205.91;4953027;29;20873;-76
2020/12/25 10:24:42;;;;;;;43.40;36.67;;;;;;;10.19;100.00;94203.63;4953710;28;20488;-77
2020/12/25 10:27:09;;;;;;;32.00;27.90;;;;;;;9.87;100.00;94206.28;4953453;29;20504;-78
2020/12/25 10:29:35;;;;;;;31.47;27.97;;;;;;;10.03;100.00;94192.50;4953367;28;20454;-81
2020/12/25 10:32:02;;;;;;;29.57;26.73;;;;;;;10.02;100.00;94182.34;4953634;29;20433;-82
2020/12/25 10:34:38;;;;;;;32.30;28.80;;;;;;;9.73;100.00;94190.63;4953926;29;20930;-83
2020/12/25 10:37:04;;;;;;;30.13;27.40;;;;;;;9.95;100.00;94185.63;4956648;28;20456;-71
2020/12/25 10:39:30;;;;;;;32.70;29.20;;;;;;;9.99;100.00;94187.88;4953644;29;20434;-86
2020/12/25 10:42:08;;;;;;;31.93;28.87;;;;;;;9.68;100.00;94190.34;4953510;29;20905;-81
2020/12/25 10:44:34;;;;;;;50.90;37.33;;;;;;;10.05;100.00;94182.03;4953083;29;20441;-74
2020/12/25 10:47:07;;;;;;;59.20;40.83;;;;;;;10.42;100.00;94171.84;4953758;29;20461;-74
2020/12/25 10:49:33;;;;;;;47.80;37.13;;;;;;;10.25;100.00;94184.09;4953024;29;20443;-73
2020/12/25 10:52:00;;;;;;;51.07;38.73;;;;;;;10.34;100.00;94167.59;4953833;29;20442;-79
2020/12/25 10:54:26;;;;;;;50.67;39.40;;;;;;;10.48;100.00;94176.31;4953548;29;20438;-78
2020/12/25 10:56:52;;;;;;;99.70;68.93;;;;;;;10.38;100.00;94158.53;4953072;29;20450;-75
2020/12/25 10:59:20;;;;;;;298.73;172.40;;;;;;;10.61;100.00;94157.69;4953290;29;20962;-71
2020/12/25 11:01:48;;;;;;;141.10;94.53;;;;;;;10.87;100.00;94151.25;4953346;29;20447;-75
2020/12/25 11:04:15;;;;;;;47.10;39.37;;;;;;;11.10;100.00;94155.47;4953349;29;20442;-81
2020/12/25 11:06:45;;;;;;;50.97;39.10;;;;;;;10.82;100.00;94158.72;4953226;29;20984;-79
2020/12/25 11:09:11;;;;;;;44.60;37.07;;;;;;;10.99;100.00;94161.09;4953812;29;20466;-77
2020/12/25 11:11:40;;;;;;;49.53;38.03;;;;;;;10.95;100.00;94155.50;4953746;29;20434;-74
2020/12/25 11:14:07;;;;;;;34.00;30.30;;;;;;;10.53;100.00;94156.00;4959363;28;20461;-79
2020/12/25 11:16:36;;;;;;;32.57;29.30;;;;;;;10.40;100.00;94161.72;4972672;28;20816;-74
2020/12/25 11:19:06;;;;;;;33.60;29.43;;;;;;;10.56;100.00;94139.38;4973194;28;20433;-77